sensor_id;sensor_type;location;lat;lon;timestamp;pressure;altitude;pressure_sealevel;temperature;humidity
9764;BME280;4921;43.214;27.936;2023-04-25T00:00:00;100505.16;;;13.74;100.00
9764;BME280;4921;43.214;27.936;2023-04-25T00:02:29;100495.59;;;13.73;100.00
9764;BME280;4921;43.214;27.936;2023-04-25T00:04:57;100491.97;;;13.74;100.00
9764;BME280;4921;43.214;27.936;2023-04-25T00:07:26;100496.28;;;13.75;100.00
9764;BME280;4921;43.214;27.936;2023-04-25T00:09:53;100478.25;;;13.61;100.00
9764;BME280;4921;43.214;27.936;2023-04-25T00:12:20;100482.75;;;13.78;100.00
9764;BME280;4921;43.214;27.936;2023-04-25T00:14:48;100484.41;;;13.89;100.00
9764;BME280;4921;43.214;27.936;2023-04-25T00:17:16;100475.66;;;13.78;100.00
9764;BME280;4921;43.214;27.936;2023-04-25T00:19:44;100472.50;;;13.75;100.00
9764;BME280;4921;43.214;27.936;2023-04-25T00:22:11;100470.69;;;13.75;100.00
9764;BME280;4921;43.214;27.936;2023-04-25T00:24:40;100466.56;;;13.63;100.00
9764;BME280;4921;43.214;27.936;2023-04-25T00:27:07;100475.03;;;13.67;100.00
9764;BME280;4921;43.214;27.936;2023-04-25T00:29:34;100465.03;;;13.61;100.00
9764;BME280;4921;43.214;27.936;2023-04-25T00:32:01;100463.41;;;13.50;100.00
9764;BME280;4921;43.214;27.936;2023-04-25T00:34:28;100453.94;;;13.48;100.00
9764;BME280;4921;43.214;27.936;2023-04-25T00:36:55;100456.09;;;13.35;100.00
9764;BME280;4921;43.214;27.936;2023-04-25T00:39:22;100451.78;;;13.34;100.00
9764;BME280;4921;43.214;27.936;2023-04-25T00:41:50;100448.88;;;13.27;100.00
9764;BME280;4921;43.214;27.936;2023-04-25T00:44:20;100449.47;;;13.21;100.00
9764;BME280;4921;43.214;27.936;2023-04-25T00:46:47;100441.81;;;13.28;100.00
9764;BME280;4921;43.214;27.936;2023-04-25T00:49:14;100437.78;;;13.24;100.00
9764;BME280;4921;43.214;27.936;2023-04-25T00:51:42;100435.84;;;13.26;100.00
9764;BME280;4921;43.214;27.936;2023-04-25T00:54:11;100441.50;;;13.31;100.00
9764;BME280;4921;43.214;27.936;2023-04-25T00:56:38;100436.88;;;13.42;100.00
9764;BME280;4921;43.214;27.936;2023-04-25T00:59:09;100431.06;;;13.39;100.00
9764;BME280;4921;43.214;27.936;2023-04-25T01:01:36;100425.34;;;13.43;100.00
9764;BME280;4921;43.214;27.936;2023-04-25T01:04:05;100428.28;;;13.40;100.00
9764;BME280;4921;43.214;27.936;2023-04-25T01:06:32;100428.53;;;13.47;100.00
9764;BME280;4921;43.214;27.936;2023-04-25T01:08:59;100409.19;;;13.46;100.00
9764;BME280;4921;43.214;27.936;2023-04-25T01:11:26;100427.94;;;13.53;100.00
9764;BME280;4921;43.214;27.936;2023-04-25T01:13:53;100427.50;;;13.57;100.00
9764;BME280;4921;43.214;27.936;2023-04-25T01:16:22;100424.03;;;13.57;100.00
9764;BME280;4921;43.214;27.936;2023-04-25T01:18:49;100419.44;;;13.59;100.00
9764;BME280;4921;43.214;27.936;2023-04-25T01:21:18;100409.25;;;13.64;100.00
9764;BME280;4921;43.214;27.936;2023-04-25T01:23:45;100414.63;;;13.72;100.00
9764;BME280;4921;43.214;27.936;2023-04-25T01:26:13;100419.09;;;13.71;100.00
9764;BME280;4921;43.214;27.936;2023-04-25T01:28:40;100410.22;;;13.63;100.00
9764;BME280;4921;43.214;27.936;2023-04-25T01:31:07;100405.88;;;13.44;100.00
9764;BME280;4921;43.214;27.936;2023-04-25T01:33:35;100401.03;;;13.40;100.00
9764;BME280;4921;43.214;27.936;2023-04-25T01:36:02;100400.31;;;13.47;100.00
9764;BME280;4921;43.214;27.936;2023-04-25T01:38:31;100400.84;;;13.51;100.00
9764;BME280;4921;43.214;27.936;2023-04-25T01:40:58;100398.44;;;13.57;100.00
9764;BME280;4921;43.214;27.936;2023-04-25T01:43:25;100393.44;;;13.54;100.00
9764;BME280;4921;43.214;27.936;2023-04-25T01:45:53;100395.56;;;13.51;100.00
9764;BME280;4921;43.214;27.936;2023-04-25T01:48:20;100396.56;;;13.40;100.00
9764;BME280;4921;43.214;27.936;2023-04-25T01:50:48;100383.38;;;13.40;100.00
9764;BME280;4921;43.214;27.936;2023-04-25T01:53:15;100382.63;;;13.48;100.00
9764;BME280;4921;43.214;27.936;2023-04-25T01:55:43;100379.09;;;13.30;100.00
9764;BME280;4921;43.214;27.936;2023-04-25T01:58:10;100373.00;;;13.29;100.00
9764;BME280;4921;43.214;27.936;2023-04-25T02:00:38;100367.03;;;13.18;100.00
9764;BME280;4921;43.214;27.936;2023-04-25T02:03:06;100365.06;;;13.29;100.00
9764;BME280;4921;43.214;27.936;2023-04-25T02:05:36;100367.19;;;13.26;100.00
9764;BME280;4921;43.214;27.936;2023-04-25T02:08:05;100359.09;;;13.27;100.00
9764;BME280;4921;43.214;27.936;2023-04-25T02:10:32;100351.28;;;13.35;100.00
9764;BME280;4921;43.214;27.936;2023-04-25T02:13:00;100354.72;;;13.45;100.00
9764;BME280;4921;43.214;27.936;2023-04-25T02:15:28;100354.81;;;13.53;100.00
9764;BME280;4921;43.214;27.936;2023-04-25T02:17:55;100352.69;;;13.57;100.00
9764;BME280;4921;43.214;27.936;2023-04-25T02:20:23;100356.16;;;13.57;100.00
9764;BME280;4921;43.214;27.936;2023-04-25T02:22:51;100366.59;;;13.59;100.00
9764;BME280;4921;43.214;27.936;2023-04-25T02:25:19;100359.75;;;13.66;100.00
9764;BME280;4921;43.214;27.936;2023-04-25T02:27:46;100349.81;;;13.50;100.00
9764;BME280;4921;43.214;27.936;2023-04-25T02:30:15;100348.00;;;13.51;100.00
9764;BME280;4921;43.214;27.936;2023-04-25T02:32:42;100337.00;;;13.55;100.00
9764;BME280;4921;43.214;27.936;2023-04-25T02:35:09;100320.84;;;13.58;100.00
9764;BME280;4921;43.214;27.936;2023-04-25T02:37:38;100331.13;;;13.61;100.00
9764;BME280;4921;43.214;27.936;2023-04-25T02:40:06;100322.72;;;13.48;100.00
9764;BME280;4921;43.214;27.936;2023-04-25T02:42:33;100324.50;;;13.48;100.00
9764;BME280;4921;43.214;27.936;2023-04-25T02:45:00;100317.06;;;13.43;100.00
9764;BME280;4921;43.214;27.936;2023-04-25T02:47:29;100318.84;;;13.43;100.00
9764;BME280;4921;43.214;27.936;2023-04-25T02:49:56;100321.28;;;13.27;100.00
9764;BME280;4921;43.214;27.936;2023-04-25T02:52:23;100315.41;;;13.33;100.00
9764;BME280;4921;43.214;27.936;2023-04-25T02:54:50;100319.97;;;13.40;100.00
9764;BME280;4921;43.214;27.936;2023-04-25T02:57:17;100316.47;;;13.49;100.00
9764;BME280;4921;43.214;27.936;2023-04-25T02:59:44;100309.59;;;13.56;100.00
9764;BME280;4921;43.214;27.936;2023-04-25T03:02:11;100315.88;;;13.55;100.00
9764;BME280;4921;43.214;27.936;2023-04-25T03:04:39;100315.81;;;13.65;100.00
9764;BME280;4921;43.214;27.936;2023-04-25T03:07:07;100316.63;;;13.65;100.00
9764;BME280;4921;43.214;27.936;2023-04-25T03:09:34;100311.69;;;13.53;100.00
9764;BME280;4921;43.214;27.936;2023-04-25T03:12:01;100312.69;;;13.52;100.00
9764;BME280;4921;43.214;27.936;2023-04-25T03:14:28;100311.25;;;13.57;100.00
9764;BME280;4921;43.214;27.936;2023-04-25T03:16:54;100310.97;;;13.60;100.00
9764;BME280;4921;43.214;27.936;2023-04-25T03:19:21;100305.94;;;13.67;100.00
9764;BME280;4921;43.214;27.936;2023-04-25T03:21:50;100308.34;;;13.60;100.00
9764;BME280;4921;43.214;27.936;2023-04-25T03:24:17;100300.50;;;13.41;100.00
9764;BME280;4921;43.214;27.936;2023-04-25T03:26:43;100298.84;;;13.40;100.00
9764;BME280;4921;43.214;27.936;2023-04-25T03:29:10;100296.06;;;13.42;100.00
9764;BME280;4921;43.214;27.936;2023-04-25T03:31:38;100303.69;;;13.45;100.00
9764;BME280;4921;43.214;27.936;2023-04-25T03:34:05;100303.44;;;13.38;100.00
9764;BME280;4921;43.214;27.936;2023-04-25T03:36:32;100302.22;;;13.33;100.00
9764;BME280;4921;43.214;27.936;2023-04-25T03:39:00;100297.00;;;13.23;100.00
9764;BME280;4921;43.214;27.936;2023-04-25T03:41:28;100293.53;;;13.23;100.00
9764;BME280;4921;43.214;27.936;2023-04-25T03:43:55;100300.34;;;13.16;100.00
9764;BME280;4921;43.214;27.936;2023-04-25T03:46:22;100294.13;;;13.07;100.00
9764;BME280;4921;43.214;27.936;2023-04-25T03:48:48;100295.81;;;13.08;100.00
9764;BME280;4921;43.214;27.936;2023-04-25T03:51:15;100295.50;;;13.11;100.00
9764;BME280;4921;43.214;27.936;2023-04-25T03:53:42;100298.28;;;13.19;100.00
9764;BME280;4921;43.214;27.936;2023-04-25T03:56:11;100299.78;;;13.22;100.00
9764;BME280;4921;43.214;27.936;2023-04-25T03:58:37;100287.84;;;13.18;100.00
9764;BME280;4921;43.214;27.936;2023-04-25T04:01:04;100294.88;;;13.27;100.00
9764;BME280;4921;43.214;27.936;2023-04-25T04:03:33;100287.78;;;13.27;100.00
9764;BME280;4921;43.214;27.936;2023-04-25T04:06:01;100294.16;;;13.34;100.00
9764;BME280;4921;43.214;27.936;2023-04-25T04:08:29;100289.56;;;13.36;100.00
9764;BME280;4921;43.214;27.936;2023-04-25T04:10:56;100291.09;;;13.39;100.00
9764;BME280;4921;43.214;27.936;2023-04-25T04:13:25;100276.63;;;13.33;100.00
9764;BME280;4921;43.214;27.936;2023-04-25T04:15:52;100286.59;;;13.39;100.00
9764;BME280;4921;43.214;27.936;2023-04-25T04:18:19;100285.94;;;13.37;100.00
9764;BME280;4921;43.214;27.936;2023-04-25T04:20:46;100277.97;;;13.47;100.00
9764;BME280;4921;43.214;27.936;2023-04-25T04:23:13;100276.19;;;13.65;100.00
9764;BME280;4921;43.214;27.936;2023-04-25T04:25:40;100275.13;;;13.75;100.00
9764;BME280;4921;43.214;27.936;2023-04-25T04:28:07;100284.53;;;13.96;100.00
9764;BME280;4921;43.214;27.936;2023-04-25T04:30:35;100281.22;;;13.94;100.00
9764;BME280;4921;43.214;27.936;2023-04-25T04:33:03;100284.25;;;13.99;100.00
9764;BME280;4921;43.214;27.936;2023-04-25T04:35:30;100280.94;;;13.97;100.00
9764;BME280;4921;43.214;27.936;2023-04-25T04:37:56;100279.13;;;13.97;100.00
9764;BME280;4921;43.214;27.936;2023-04-25T04:40:23;100280.25;;;14.12;100.00
9764;BME280;4921;43.214;27.936;2023-04-25T04:42:50;100273.00;;;14.14;100.00
9764;BME280;4921;43.214;27.936;2023-04-25T04:45:18;100278.28;;;14.14;100.00
9764;BME280;4921;43.214;27.936;2023-04-25T04:47:47;100279.09;;;14.32;100.00
9764;BME280;4921;43.214;27.936;2023-04-25T04:50:15;100273.72;;;14.42;100.00
9764;BME280;4921;43.214;27.936;2023-04-25T04:52:42;100270.66;;;14.55;100.00
9764;BME280;4921;43.214;27.936;2023-04-25T04:55:09;100268.13;;;14.71;100.00
9764;BME280;4921;43.214;27.936;2023-04-25T04:57:36;100268.72;;;14.65;100.00
9764;BME280;4921;43.214;27.936;2023-04-25T05:00:05;100269.13;;;14.78;100.00
9764;BME280;4921;43.214;27.936;2023-04-25T05:02:36;100271.25;;;15.00;100.00
9764;BME280;4921;43.214;27.936;2023-04-25T05:05:05;100270.44;;;15.07;100.00
9764;BME280;4921;43.214;27.936;2023-04-25T05:07:33;100267.66;;;15.09;100.00
9764;BME280;4921;43.214;27.936;2023-04-25T05:10:00;100267.13;;;15.05;100.00
9764;BME280;4921;43.214;27.936;2023-04-25T05:12:26;100257.84;;;15.01;100.00
9764;BME280;4921;43.214;27.936;2023-04-25T05:14:54;100256.19;;;15.00;100.00
9764;BME280;4921;43.214;27.936;2023-04-25T05:17:21;100268.88;;;14.89;100.00
9764;BME280;4921;43.214;27.936;2023-04-25T05:19:47;100269.50;;;14.83;100.00
9764;BME280;4921;43.214;27.936;2023-04-25T05:22:16;100268.75;;;14.98;100.00
9764;BME280;4921;43.214;27.936;2023-04-25T05:24:43;100268.69;;;15.24;100.00
9764;BME280;4921;43.214;27.936;2023-04-25T05:27:10;100268.53;;;15.25;100.00
9764;BME280;4921;43.214;27.936;2023-04-25T05:29:37;100255.97;;;15.36;100.00
9764;BME280;4921;43.214;27.936;2023-04-25T05:32:05;100253.03;;;15.47;100.00
9764;BME280;4921;43.214;27.936;2023-04-25T05:34:33;100259.22;;;15.63;100.00
9764;BME280;4921;43.214;27.936;2023-04-25T05:36:59;100261.41;;;15.76;100.00
9764;BME280;4921;43.214;27.936;2023-04-25T05:39:28;100261.56;;;15.82;100.00
9764;BME280;4921;43.214;27.936;2023-04-25T05:41:55;100255.44;;;15.74;100.00
9764;BME280;4921;43.214;27.936;2023-04-25T05:44:22;100249.81;;;15.93;100.00
9764;BME280;4921;43.214;27.936;2023-04-25T05:46:49;100247.00;;;15.94;100.00
9764;BME280;4921;43.214;27.936;2023-04-25T05:49:16;100253.78;;;16.05;100.00
9764;BME280;4921;43.214;27.936;2023-04-25T05:51:42;100241.53;;;15.72;100.00
9764;BME280;4921;43.214;27.936;2023-04-25T05:54:09;100240.69;;;15.63;100.00
9764;BME280;4921;43.214;27.936;2023-04-25T05:56:38;100238.53;;;15.75;100.00
9764;BME280;4921;43.214;27.936;2023-04-25T05:59:05;100234.22;;;16.06;100.00
9764;BME280;4921;43.214;27.936;2023-04-25T06:01:31;100236.88;;;16.14;100.00
9764;BME280;4921;43.214;27.936;2023-04-25T06:03:58;100232.56;;;15.81;100.00
9764;BME280;4921;43.214;27.936;2023-04-25T06:06:25;100243.16;;;15.81;100.00
9764;BME280;4921;43.214;27.936;2023-04-25T06:08:53;100247.13;;;15.69;100.00
9764;BME280;4921;43.214;27.936;2023-04-25T06:11:20;100237.72;;;15.82;100.00
9764;BME280;4921;43.214;27.936;2023-04-25T06:13:49;100237.84;;;15.65;100.00
9764;BME280;4921;43.214;27.936;2023-04-25T06:16:16;100238.53;;;15.67;100.00
9764;BME280;4921;43.214;27.936;2023-04-25T06:18:43;100232.63;;;15.31;100.00
9764;BME280;4921;43.214;27.936;2023-04-25T06:21:09;100233.78;;;15.28;100.00
9764;BME280;4921;43.214;27.936;2023-04-25T06:23:36;100230.03;;;15.47;100.00
9764;BME280;4921;43.214;27.936;2023-04-25T06:26:03;100233.34;;;15.57;100.00
9764;BME280;4921;43.214;27.936;2023-04-25T06:28:30;100233.84;;;15.53;100.00
9764;BME280;4921;43.214;27.936;2023-04-25T06:30:59;100223.59;;;15.58;100.00
9764;BME280;4921;43.214;27.936;2023-04-25T06:33:25;100223.75;;;15.64;100.00
9764;BME280;4921;43.214;27.936;2023-04-25T06:35:52;100225.56;;;15.64;100.00
9764;BME280;4921;43.214;27.936;2023-04-25T06:38:19;100215.00;;;15.80;100.00
9764;BME280;4921;43.214;27.936;2023-04-25T06:40:46;100210.38;;;15.74;100.00
9764;BME280;4921;43.214;27.936;2023-04-25T06:43:13;100220.59;;;15.53;100.00
9764;BME280;4921;43.214;27.936;2023-04-25T06:45:40;100218.28;;;15.66;100.00
9764;BME280;4921;43.214;27.936;2023-04-25T06:48:09;100211.66;;;15.54;100.00
9764;BME280;4921;43.214;27.936;2023-04-25T06:50:35;100221.44;;;15.61;100.00
9764;BME280;4921;43.214;27.936;2023-04-25T06:53:03;100216.13;;;15.53;100.00
9764;BME280;4921;43.214;27.936;2023-04-25T06:55:29;100213.56;;;15.36;100.00
9764;BME280;4921;43.214;27.936;2023-04-25T06:57:56;100219.81;;;15.10;100.00
9764;BME280;4921;43.214;27.936;2023-04-25T07:00:23;100226.78;;;15.11;100.00
9764;BME280;4921;43.214;27.936;2023-04-25T07:02:50;100218.09;;;15.43;100.00
9764;BME280;4921;43.214;27.936;2023-04-25T07:05:19;100223.63;;;15.74;100.00
9764;BME280;4921;43.214;27.936;2023-04-25T07:07:46;100219.66;;;16.02;100.00
9764;BME280;4921;43.214;27.936;2023-04-25T07:10:14;100209.03;;;16.10;100.00
9764;BME280;4921;43.214;27.936;2023-04-25T07:12:41;100205.53;;;16.10;100.00
9764;BME280;4921;43.214;27.936;2023-04-25T07:15:09;100204.00;;;16.31;100.00
9764;BME280;4921;43.214;27.936;2023-04-25T07:17:37;100212.81;;;16.32;100.00
9764;BME280;4921;43.214;27.936;2023-04-25T07:20:04;100213.78;;;16.47;100.00
9764;BME280;4921;43.214;27.936;2023-04-25T07:22:35;100207.31;;;16.41;100.00
9764;BME280;4921;43.214;27.936;2023-04-25T07:25:02;100195.38;;;16.45;100.00
9764;BME280;4921;43.214;27.936;2023-04-25T07:27:29;100209.81;;;16.51;100.00
9764;BME280;4921;43.214;27.936;2023-04-25T07:29:57;100197.97;;;16.77;100.00
9764;BME280;4921;43.214;27.936;2023-04-25T07:32:25;100204.56;;;16.82;100.00
9764;BME280;4921;43.214;27.936;2023-04-25T07:34:52;100185.56;;;17.01;100.00
9764;BME280;4921;43.214;27.936;2023-04-25T07:37:19;100186.94;;;17.19;100.00
9764;BME280;4921;43.214;27.936;2023-04-25T07:39:47;100185.84;;;17.36;100.00
9764;BME280;4921;43.214;27.936;2023-04-25T07:42:14;100181.66;;;17.42;100.00
9764;BME280;4921;43.214;27.936;2023-04-25T07:44:41;100186.16;;;17.41;100.00
9764;BME280;4921;43.214;27.936;2023-04-25T07:47:09;100185.25;;;17.26;100.00
9764;BME280;4921;43.214;27.936;2023-04-25T07:49:36;100183.50;;;17.11;100.00
9764;BME280;4921;43.214;27.936;2023-04-25T07:52:04;100185.56;;;17.31;100.00
9764;BME280;4921;43.214;27.936;2023-04-25T07:54:31;100181.22;;;17.08;100.00
9764;BME280;4921;43.214;27.936;2023-04-25T07:57:00;100180.91;;;16.64;100.00
9764;BME280;4921;43.214;27.936;2023-04-25T07:59:28;100178.56;;;16.61;100.00
9764;BME280;4921;43.214;27.936;2023-04-25T08:01:54;100185.09;;;16.50;100.00
9764;BME280;4921;43.214;27.936;2023-04-25T08:04:22;100182.31;;;16.20;100.00
9764;BME280;4921;43.214;27.936;2023-04-25T08:06:50;100181.63;;;16.34;100.00
9764;BME280;4921;43.214;27.936;2023-04-25T08:09:19;100183.81;;;16.30;100.00
9764;BME280;4921;43.214;27.936;2023-04-25T08:11:46;100183.47;;;16.09;100.00
9764;BME280;4921;43.214;27.936;2023-04-25T08:14:14;100192.63;;;15.90;100.00
9764;BME280;4921;43.214;27.936;2023-04-25T08:16:41;100202.75;;;15.87;100.00
9764;BME280;4921;43.214;27.936;2023-04-25T08:19:09;100200.41;;;15.60;100.00
9764;BME280;4921;43.214;27.936;2023-04-25T08:21:36;100207.19;;;15.62;100.00
9764;BME280;4921;43.214;27.936;2023-04-25T08:24:03;100206.69;;;15.75;100.00
9764;BME280;4921;43.214;27.936;2023-04-25T08:26:30;100209.31;;;15.51;100.00
9764;BME280;4921;43.214;27.936;2023-04-25T08:28:58;100195.75;;;15.54;100.00
9764;BME280;4921;43.214;27.936;2023-04-25T08:31:26;100196.41;;;15.48;100.00
9764;BME280;4921;43.214;27.936;2023-04-25T08:33:54;100198.97;;;15.23;100.00
9764;BME280;4921;43.214;27.936;2023-04-25T08:36:21;100198.44;;;15.12;100.00
9764;BME280;4921;43.214;27.936;2023-04-25T08:38:48;100194.19;;;15.27;100.00
9764;BME280;4921;43.214;27.936;2023-04-25T08:41:16;100192.56;;;15.42;100.00
9764;BME280;4921;43.214;27.936;2023-04-25T08:43:44;100191.22;;;15.30;100.00
9764;BME280;4921;43.214;27.936;2023-04-25T08:46:17;100197.84;;;15.26;100.00
9764;BME280;4921;43.214;27.936;2023-04-25T08:48:46;100198.84;;;15.33;100.00
9764;BME280;4921;43.214;27.936;2023-04-25T08:51:17;100187.84;;;15.12;100.00
9764;BME280;4921;43.214;27.936;2023-04-25T08:53:49;100186.88;;;15.21;100.00
9764;BME280;4921;43.214;27.936;2023-04-25T08:56:17;100197.75;;;15.52;100.00
9764;BME280;4921;43.214;27.936;2023-04-25T08:58:48;100192.91;;;15.39;100.00
9764;BME280;4921;43.214;27.936;2023-04-25T09:01:15;100192.91;;;15.39;100.00
9764;BME280;4921;43.214;27.936;2023-04-25T09:03:42;100202.72;;;15.55;100.00
9764;BME280;4921;43.214;27.936;2023-04-25T09:06:11;100203.03;;;15.60;100.00
9764;BME280;4921;43.214;27.936;2023-04-25T09:08:39;100202.25;;;15.75;100.00
9764;BME280;4921;43.214;27.936;2023-04-25T09:11:06;100199.56;;;15.91;100.00
9764;BME280;4921;43.214;27.936;2023-04-25T09:13:33;100185.66;;;15.81;100.00
9764;BME280;4921;43.214;27.936;2023-04-25T09:16:00;100194.78;;;15.71;100.00
9764;BME280;4921;43.214;27.936;2023-04-25T09:18:29;100184.84;;;15.73;100.00
9764;BME280;4921;43.214;27.936;2023-04-25T09:21:05;100188.66;;;15.78;100.00
9764;BME280;4921;43.214;27.936;2023-04-25T09:23:39;100175.84;;;15.42;100.00
9764;BME280;4921;43.214;27.936;2023-04-25T09:26:07;100180.47;;;15.40;100.00
9764;BME280;4921;43.214;27.936;2023-04-25T09:28:34;100172.34;;;15.33;100.00
9764;BME280;4921;43.214;27.936;2023-04-25T09:31:03;100183.81;;;15.42;100.00
9764;BME280;4921;43.214;27.936;2023-04-25T09:33:31;100180.63;;;15.38;100.00
9764;BME280;4921;43.214;27.936;2023-04-25T09:36:03;100169.72;;;15.33;100.00
9764;BME280;4921;43.214;27.936;2023-04-25T09:38:31;100161.59;;;15.26;100.00
9764;BME280;4921;43.214;27.936;2023-04-25T09:41:00;100160.94;;;15.33;100.00
9764;BME280;4921;43.214;27.936;2023-04-25T09:43:27;100163.63;;;15.57;100.00
9764;BME280;4921;43.214;27.936;2023-04-25T09:45:55;100140.94;;;15.62;100.00
9764;BME280;4921;43.214;27.936;2023-04-25T09:48:26;100154.69;;;15.82;100.00
9764;BME280;4921;43.214;27.936;2023-04-25T09:51:07;100156.03;;;15.70;100.00
9764;BME280;4921;43.214;27.936;2023-04-25T09:53:35;100149.38;;;15.74;100.00
9764;BME280;4921;43.214;27.936;2023-04-25T09:56:06;100158.47;;;15.95;100.00
9764;BME280;4921;43.214;27.936;2023-04-25T09:58:34;100156.66;;;16.04;100.00
9764;BME280;4921;43.214;27.936;2023-04-25T10:01:04;100156.13;;;16.17;100.00
9764;BME280;4921;43.214;27.936;2023-04-25T10:03:32;100137.84;;;16.22;100.00
9764;BME280;4921;43.214;27.936;2023-04-25T10:06:00;100137.97;;;16.44;100.00
9764;BME280;4921;43.214;27.936;2023-04-25T10:08:31;100133.13;;;16.64;100.00
9764;BME280;4921;43.214;27.936;2023-04-25T10:11:00;100127.25;;;16.76;100.00
9764;BME280;4921;43.214;27.936;2023-04-25T10:13:30;100124.97;;;16.96;100.00
9764;BME280;4921;43.214;27.936;2023-04-25T10:15:58;100118.44;;;17.07;100.00
9764;BME280;4921;43.214;27.936;2023-04-25T10:18:26;100115.75;;;17.37;100.00
9764;BME280;4921;43.214;27.936;2023-04-25T10:20:54;100115.66;;;17.45;100.00
9764;BME280;4921;43.214;27.936;2023-04-25T10:23:23;100121.25;;;17.36;100.00
9764;BME280;4921;43.214;27.936;2023-04-25T10:25:51;100116.28;;;17.33;100.00
9764;BME280;4921;43.214;27.936;2023-04-25T10:28:18;100111.84;;;17.48;100.00
9764;BME280;4921;43.214;27.936;2023-04-25T10:31:00;100109.97;;;17.57;100.00
9764;BME280;4921;43.214;27.936;2023-04-25T10:33:35;100107.84;;;17.52;100.00
9764;BME280;4921;43.214;27.936;2023-04-25T10:36:10;100103.25;;;17.83;100.00
9764;BME280;4921;43.214;27.936;2023-04-25T10:38:38;100102.22;;;17.99;100.00
9764;BME280;4921;43.214;27.936;2023-04-25T10:41:06;100094.19;;;18.21;100.00
9764;BME280;4921;43.214;27.936;2023-04-25T10:43:38;100100.69;;;18.19;100.00
9764;BME280;4921;43.214;27.936;2023-04-25T10:46:22;100097.41;;;18.02;100.00
9764;BME280;4921;43.214;27.936;2023-04-25T10:48:51;100091.63;;;18.28;100.00
9764;BME280;4921;43.214;27.936;2023-04-25T10:51:20;100080.44;;;18.47;100.00
9764;BME280;4921;43.214;27.936;2023-04-25T10:53:56;100106.94;;;18.55;100.00
9764;BME280;4921;43.214;27.936;2023-04-25T10:56:26;100098.88;;;18.05;100.00
9764;BME280;4921;43.214;27.936;2023-04-25T10:59:04;100100.34;;;18.22;100.00
9764;BME280;4921;43.214;27.936;2023-04-25T11:01:38;100098.13;;;17.96;100.00
9764;BME280;4921;43.214;27.936;2023-04-25T11:04:05;100093.38;;;17.69;100.00
9764;BME280;4921;43.214;27.936;2023-04-25T11:06:46;100108.19;;;18.01;100.00
9764;BME280;4921;43.214;27.936;2023-04-25T11:09:17;100102.53;;;17.52;100.00
9764;BME280;4921;43.214;27.936;2023-04-25T11:11:53;100112.16;;;17.53;100.00
9764;BME280;4921;43.214;27.936;2023-04-25T11:14:20;100097.78;;;17.39;100.00
9764;BME280;4921;43.214;27.936;2023-04-25T11:16:52;100106.47;;;17.33;100.00
9764;BME280;4921;43.214;27.936;2023-04-25T11:19:20;100097.78;;;17.39;100.00
9764;BME280;4921;43.214;27.936;2023-04-25T11:21:46;100110.41;;;17.60;100.00
9764;BME280;4921;43.214;27.936;2023-04-25T11:24:13;100112.38;;;17.66;100.00
9764;BME280;4921;43.214;27.936;2023-04-25T11:26:41;100098.78;;;17.61;100.00
9764;BME280;4921;43.214;27.936;2023-04-25T11:29:09;100100.59;;;17.83;100.00
9764;BME280;4921;43.214;27.936;2023-04-25T11:31:36;100095.88;;;17.71;100.00
9764;BME280;4921;43.214;27.936;2023-04-25T11:34:04;100096.44;;;17.81;100.00
9764;BME280;4921;43.214;27.936;2023-04-25T11:36:31;100102.31;;;17.76;100.00
9764;BME280;4921;43.214;27.936;2023-04-25T11:38:58;100094.00;;;18.08;100.00
9764;BME280;4921;43.214;27.936;2023-04-25T11:41:25;100084.63;;;17.98;100.00
9764;BME280;4921;43.214;27.936;2023-04-25T11:43:53;100090.16;;;17.59;100.00
9764;BME280;4921;43.214;27.936;2023-04-25T11:46:19;100084.88;;;17.74;100.00
9764;BME280;4921;43.214;27.936;2023-04-25T11:48:46;100080.28;;;17.68;100.00
9764;BME280;4921;43.214;27.936;2023-04-25T11:51:15;100086.44;;;17.68;100.00
9764;BME280;4921;43.214;27.936;2023-04-25T11:53:44;100078.38;;;17.91;100.00
9764;BME280;4921;43.214;27.936;2023-04-25T11:56:11;100070.00;;;17.79;100.00
9764;BME280;4921;43.214;27.936;2023-04-25T11:58:55;100087.09;;;17.70;100.00
9764;BME280;4921;43.214;27.936;2023-04-25T12:01:27;100081.25;;;18.04;100.00
9764;BME280;4921;43.214;27.936;2023-04-25T12:03:54;100069.75;;;18.33;100.00
9764;BME280;4921;43.214;27.936;2023-04-25T12:06:26;100073.25;;;18.18;100.00
9764;BME280;4921;43.214;27.936;2023-04-25T12:09:01;100070.84;;;18.38;100.00
9764;BME280;4921;43.214;27.936;2023-04-25T12:11:30;100061.50;;;18.27;100.00
9764;BME280;4921;43.214;27.936;2023-04-25T12:14:02;100054.25;;;18.36;100.00
9764;BME280;4921;43.214;27.936;2023-04-25T12:16:29;100052.50;;;18.14;100.00
9764;BME280;4921;43.214;27.936;2023-04-25T12:18:56;100049.47;;;18.46;100.00
9764;BME280;4921;43.214;27.936;2023-04-25T12:21:29;100045.22;;;18.66;100.00
9764;BME280;4921;43.214;27.936;2023-04-25T12:24:09;100047.91;;;18.52;100.00
9764;BME280;4921;43.214;27.936;2023-04-25T12:26:52;100062.44;;;18.20;100.00
9764;BME280;4921;43.214;27.936;2023-04-25T12:29:20;100052.22;;;17.94;100.00
9764;BME280;4921;43.214;27.936;2023-04-25T12:31:48;100051.03;;;17.82;100.00
9764;BME280;4921;43.214;27.936;2023-04-25T12:34:15;100036.66;;;17.77;100.00
9764;BME280;4921;43.214;27.936;2023-04-25T12:36:44;100031.13;;;17.93;100.00
9764;BME280;4921;43.214;27.936;2023-04-25T12:39:20;100024.59;;;17.51;100.00
9764;BME280;4921;43.214;27.936;2023-04-25T12:41:49;100035.50;;;17.57;100.00
9764;BME280;4921;43.214;27.936;2023-04-25T12:44:17;100036.94;;;17.44;100.00
9764;BME280;4921;43.214;27.936;2023-04-25T12:46:44;100032.50;;;17.60;100.00
9764;BME280;4921;43.214;27.936;2023-04-25T12:49:11;100028.28;;;17.65;100.00
9764;BME280;4921;43.214;27.936;2023-04-25T12:51:38;100025.72;;;17.72;100.00
9764;BME280;4921;43.214;27.936;2023-04-25T12:54:08;100015.00;;;17.80;100.00